sensor_id;sensor_type;location;lat;lon;timestamp;P1;durP1;ratioP1;P2;durP2;ratioP2
63943;SDS011;50121;51.218;7.664;2023-02-01T00:01:43;19.95;;;8.85;;
63943;SDS011;50121;51.218;7.664;2023-02-01T00:04:11;25.40;;;10.70;;
63943;SDS011;50121;51.218;7.664;2023-02-01T00:06:39;21.35;;;9.68;;
63943;SDS011;50121;51.218;7.664;2023-02-01T00:09:07;21.80;;;10.20;;
63943;SDS011;50121;51.218;7.664;2023-02-01T00:11:34;20.80;;;9.77;;
63943;SDS011;50121;51.218;7.664;2023-02-01T00:14:02;21.85;;;10.35;;
63943;SDS011;50121;51.218;7.664;2023-02-01T00:16:29;22.45;;;10.55;;
63943;SDS011;50121;51.218;7.664;2023-02-01T00:18:59;22.33;;;9.90;;
63943;SDS011;50121;51.218;7.664;2023-02-01T00:21:27;24.45;;;10.60;;
63943;SDS011;50121;51.218;7.664;2023-02-01T00:23:55;19.20;;;9.80;;
63943;SDS011;50121;51.218;7.664;2023-02-01T00:26:25;20.00;;;8.55;;
63943;SDS011;50121;51.218;7.664;2023-02-01T00:28:54;26.23;;;10.10;;
63943;SDS011;50121;51.218;7.664;2023-02-01T00:31:21;16.42;;;7.75;;
63943;SDS011;50121;51.218;7.664;2023-02-01T00:33:49;26.70;;;9.13;;
63943;SDS011;50121;51.218;7.664;2023-02-01T00:36:17;16.02;;;8.52;;
63943;SDS011;50121;51.218;7.664;2023-02-01T00:38:44;14.50;;;8.40;;
63943;SDS011;50121;51.218;7.664;2023-02-01T00:41:13;14.52;;;8.20;;
63943;SDS011;50121;51.218;7.664;2023-02-01T00:43:41;15.18;;;7.40;;
63943;SDS011;50121;51.218;7.664;2023-02-01T00:46:09;13.95;;;8.43;;
63943;SDS011;50121;51.218;7.664;2023-02-01T00:48:37;14.02;;;6.35;;
63943;SDS011;50121;51.218;7.664;2023-02-01T00:51:12;15.20;;;7.50;;
63943;SDS011;50121;51.218;7.664;2023-02-01T00:53:40;12.73;;;7.20;;
63943;SDS011;50121;51.218;7.664;2023-02-01T00:56:08;17.50;;;7.28;;
63943;SDS011;50121;51.218;7.664;2023-02-01T00:58:36;16.58;;;7.50;;
63943;SDS011;50121;51.218;7.664;2023-02-01T01:01:07;15.40;;;7.90;;
63943;SDS011;50121;51.218;7.664;2023-02-01T01:03:36;11.20;;;6.40;;
63943;SDS011;50121;51.218;7.664;2023-02-01T01:06:09;15.73;;;7.78;;
63943;SDS011;50121;51.218;7.664;2023-02-01T01:08:37;18.70;;;9.73;;
63943;SDS011;50121;51.218;7.664;2023-02-01T01:11:10;14.63;;;7.97;;
63943;SDS011;50121;51.218;7.664;2023-02-01T01:13:38;14.73;;;7.40;;
63943;SDS011;50121;51.218;7.664;2023-02-01T01:16:07;12.98;;;7.13;;
63943;SDS011;50121;51.218;7.664;2023-02-01T01:18:35;20.02;;;10.07;;
63943;SDS011;50121;51.218;7.664;2023-02-01T01:21:06;34.38;;;16.92;;
63943;SDS011;50121;51.218;7.664;2023-02-01T01:23:35;19.77;;;10.10;;
63943;SDS011;50121;51.218;7.664;2023-02-01T01:26:12;19.35;;;8.57;;
63943;SDS011;50121;51.218;7.664;2023-02-01T01:28:41;23.25;;;9.63;;
63943;SDS011;50121;51.218;7.664;2023-02-01T01:31:12;16.90;;;8.30;;
63943;SDS011;50121;51.218;7.664;2023-02-01T01:33:40;17.25;;;7.60;;
63943;SDS011;50121;51.218;7.664;2023-02-01T01:36:11;15.77;;;7.93;;
63943;SDS011;50121;51.218;7.664;2023-02-01T01:38:39;15.35;;;7.88;;
63943;SDS011;50121;51.218;7.664;2023-02-01T01:41:08;18.15;;;8.40;;
63943;SDS011;50121;51.218;7.664;2023-02-01T01:46:21;15.93;;;7.82;;
63943;SDS011;50121;51.218;7.664;2023-02-01T01:48:50;17.80;;;8.48;;
63943;SDS011;50121;51.218;7.664;2023-02-01T01:51:20;18.17;;;9.38;;
63943;SDS011;50121;51.218;7.664;2023-02-01T01:53:52;20.65;;;9.07;;
63943;SDS011;50121;51.218;7.664;2023-02-01T01:56:21;23.52;;;9.32;;
63943;SDS011;50121;51.218;7.664;2023-02-01T01:58:49;13.15;;;8.40;;
63943;SDS011;50121;51.218;7.664;2023-02-01T02:01:17;14.57;;;9.07;;
63943;SDS011;50121;51.218;7.664;2023-02-01T02:03:44;18.83;;;9.73;;
63943;SDS011;50121;51.218;7.664;2023-02-01T02:06:16;16.95;;;9.57;;
63943;SDS011;50121;51.218;7.664;2023-02-01T02:08:47;13.50;;;9.30;;
63943;SDS011;50121;51.218;7.664;2023-02-01T02:11:15;13.43;;;8.73;;
63943;SDS011;50121;51.218;7.664;2023-02-01T02:13:45;18.33;;;9.30;;
63943;SDS011;50121;51.218;7.664;2023-02-01T02:22:18;12.68;;;7.05;;
63943;SDS011;50121;51.218;7.664;2023-02-01T02:27:14;13.40;;;6.45;;
63943;SDS011;50121;51.218;7.664;2023-02-01T02:30:00;13.80;;;6.63;;
63943;SDS011;50121;51.218;7.664;2023-02-01T02:32:44;14.93;;;6.22;;
63943;SDS011;50121;51.218;7.664;2023-02-01T02:40:37;22.52;;;6.60;;
63943;SDS011;50121;51.218;7.664;2023-02-01T02:43:19;16.83;;;6.38;;
63943;SDS011;50121;51.218;7.664;2023-02-01T02:46:11;16.40;;;7.57;;
63943;SDS011;50121;51.218;7.664;2023-02-01T02:51:51;11.00;;;6.25;;
63943;SDS011;50121;51.218;7.664;2023-02-01T02:54:40;15.45;;;6.30;;
63943;SDS011;50121;51.218;7.664;2023-02-01T03:00:06;10.77;;;5.45;;
63943;SDS011;50121;51.218;7.664;2023-02-01T03:02:53;10.63;;;5.95;;
63943;SDS011;50121;51.218;7.664;2023-02-01T03:05:43;14.85;;;6.30;;
63943;SDS011;50121;51.218;7.664;2023-02-01T03:08:13;15.25;;;6.15;;
63943;SDS011;50121;51.218;7.664;2023-02-01T03:10:44;17.98;;;6.38;;
63943;SDS011;50121;51.218;7.664;2023-02-01T03:13:36;7.78;;;5.70;;
63943;SDS011;50121;51.218;7.664;2023-02-01T03:18:45;11.10;;;5.15;;
63943;SDS011;50121;51.218;7.664;2023-02-01T03:21:19;9.35;;;5.10;;
63943;SDS011;50121;51.218;7.664;2023-02-01T03:23:48;19.70;;;5.03;;
63943;SDS011;50121;51.218;7.664;2023-02-01T03:26:17;13.07;;;5.82;;
63943;SDS011;50121;51.218;7.664;2023-02-01T03:28:51;14.68;;;5.28;;
63943;SDS011;50121;51.218;7.664;2023-02-01T03:31:20;15.30;;;5.70;;
63943;SDS011;50121;51.218;7.664;2023-02-01T03:33:48;13.93;;;5.30;;
63943;SDS011;50121;51.218;7.664;2023-02-01T03:41:37;10.52;;;5.88;;
63943;SDS011;50121;51.218;7.664;2023-02-01T03:44:15;16.10;;;5.40;;
63943;SDS011;50121;51.218;7.664;2023-02-01T03:49:22;6.63;;;4.50;;
63943;SDS011;50121;51.218;7.664;2023-02-01T03:51:51;11.80;;;4.85;;
63943;SDS011;50121;51.218;7.664;2023-02-01T03:54:20;12.75;;;4.65;;
63943;SDS011;50121;51.218;7.664;2023-02-01T03:56:48;9.23;;;4.57;;
63943;SDS011;50121;51.218;7.664;2023-02-01T03:59:16;8.98;;;4.78;;
63943;SDS011;50121;51.218;7.664;2023-02-01T04:01:43;10.02;;;5.25;;
63943;SDS011;50121;51.218;7.664;2023-02-01T04:04:11;12.45;;;5.07;;
63943;SDS011;50121;51.218;7.664;2023-02-01T04:06:49;11.45;;;4.82;;
63943;SDS011;50121;51.218;7.664;2023-02-01T04:09:17;12.65;;;4.72;;
63943;SDS011;50121;51.218;7.664;2023-02-01T04:11:45;14.35;;;4.90;;
63943;SDS011;50121;51.218;7.664;2023-02-01T04:14:12;8.35;;;4.50;;
63943;SDS011;50121;51.218;7.664;2023-02-01T04:16:40;15.82;;;4.50;;
63943;SDS011;50121;51.218;7.664;2023-02-01T04:19:08;10.32;;;4.57;;
63943;SDS011;50121;51.218;7.664;2023-02-01T04:21:35;14.30;;;5.28;;
63943;SDS011;50121;51.218;7.664;2023-02-01T04:24:03;11.95;;;5.07;;
63943;SDS011;50121;51.218;7.664;2023-02-01T04:26:31;11.73;;;5.00;;
63943;SDS011;50121;51.218;7.664;2023-02-01T04:28:58;14.38;;;5.07;;
63943;SDS011;50121;51.218;7.664;2023-02-01T04:31:26;8.48;;;4.85;;
63943;SDS011;50121;51.218;7.664;2023-02-01T04:33:54;8.95;;;5.32;;
63943;SDS011;50121;51.218;7.664;2023-02-01T04:36:24;17.02;;;5.50;;
63943;SDS011;50121;51.218;7.664;2023-02-01T04:38:51;13.50;;;5.03;;
63943;SDS011;50121;51.218;7.664;2023-02-01T04:41:19;12.27;;;5.43;;
63943;SDS011;50121;51.218;7.664;2023-02-01T04:43:49;13.13;;;5.20;;
63943;SDS011;50121;51.218;7.664;2023-02-01T04:46:18;12.15;;;5.80;;
63943;SDS011;50121;51.218;7.664;2023-02-01T04:48:46;14.57;;;4.97;;
63943;SDS011;50121;51.218;7.664;2023-02-01T04:51:13;10.45;;;4.53;;
63943;SDS011;50121;51.218;7.664;2023-02-01T04:53:41;11.20;;;5.15;;
63943;SDS011;50121;51.218;7.664;2023-02-01T04:56:09;14.23;;;5.05;;
63943;SDS011;50121;51.218;7.664;2023-02-01T04:58:36;7.78;;;4.97;;
63943;SDS011;50121;51.218;7.664;2023-02-01T05:01:04;15.07;;;5.65;;
63943;SDS011;50121;51.218;7.664;2023-02-01T05:03:33;16.65;;;5.03;;
63943;SDS011;50121;51.218;7.664;2023-02-01T05:06:00;13.23;;;4.30;;
63943;SDS011;50121;51.218;7.664;2023-02-01T05:08:30;14.18;;;5.65;;
63943;SDS011;50121;51.218;7.664;2023-02-01T05:10:58;14.60;;;5.72;;
63943;SDS011;50121;51.218;7.664;2023-02-01T05:13:29;10.38;;;5.03;;
63943;SDS011;50121;51.218;7.664;2023-02-01T05:16:15;16.98;;;6.18;;
63943;SDS011;50121;51.218;7.664;2023-02-01T05:18:43;13.90;;;5.10;;
63943;SDS011;50121;51.218;7.664;2023-02-01T05:21:11;11.52;;;5.50;;
63943;SDS011;50121;51.218;7.664;2023-02-01T05:23:38;14.68;;;5.07;;
63943;SDS011;50121;51.218;7.664;2023-02-01T05:26:25;18.67;;;4.93;;
63943;SDS011;50121;51.218;7.664;2023-02-01T05:28:52;12.55;;;5.32;;
63943;SDS011;50121;51.218;7.664;2023-02-01T05:31:20;12.68;;;5.13;;
63943;SDS011;50121;51.218;7.664;2023-02-01T05:33:48;17.33;;;6.65;;
63943;SDS011;50121;51.218;7.664;2023-02-01T05:36:16;8.73;;;4.93;;
63943;SDS011;50121;51.218;7.664;2023-02-01T05:38:43;10.93;;;5.40;;
63943;SDS011;50121;51.218;7.664;2023-02-01T05:41:11;14.73;;;6.50;;
63943;SDS011;50121;51.218;7.664;2023-02-01T05:43:38;16.42;;;6.10;;
63943;SDS011;50121;51.218;7.664;2023-02-01T05:46:06;14.45;;;6.13;;
63943;SDS011;50121;51.218;7.664;2023-02-01T05:48:37;11.23;;;5.22;;
63943;SDS011;50121;51.218;7.664;2023-02-01T05:51:05;13.13;;;5.50;;
63943;SDS011;50121;51.218;7.664;2023-02-01T05:53:32;16.35;;;6.18;;
63943;SDS011;50121;51.218;7.664;2023-02-01T05:56:00;19.80;;;6.32;;
63943;SDS011;50121;51.218;7.664;2023-02-01T05:58:28;8.18;;;4.95;;
63943;SDS011;50121;51.218;7.664;2023-02-01T06:00:58;11.93;;;6.00;;
63943;SDS011;50121;51.218;7.664;2023-02-01T06:03:27;21.23;;;6.65;;
63943;SDS011;50121;51.218;7.664;2023-02-01T06:05:54;16.67;;;5.88;;
63943;SDS011;50121;51.218;7.664;2023-02-01T06:08:22;13.88;;;6.60;;
63943;SDS011;50121;51.218;7.664;2023-02-01T06:11:02;16.08;;;7.03;;
63943;SDS011;50121;51.218;7.664;2023-02-01T06:13:30;18.88;;;6.63;;
63943;SDS011;50121;51.218;7.664;2023-02-01T06:16:00;9.98;;;5.38;;
63943;SDS011;50121;51.218;7.664;2023-02-01T06:18:28;9.68;;;5.90;;
63943;SDS011;50121;51.218;7.664;2023-02-01T06:20:58;20.33;;;6.07;;
63943;SDS011;50121;51.218;7.664;2023-02-01T06:23:29;16.75;;;5.55;;
63943;SDS011;50121;51.218;7.664;2023-02-01T06:25:59;21.23;;;7.10;;
63943;SDS011;50121;51.218;7.664;2023-02-01T06:28:27;12.73;;;5.53;;
63943;SDS011;50121;51.218;7.664;2023-02-01T06:30:55;10.45;;;5.70;;
63943;SDS011;50121;51.218;7.664;2023-02-01T06:33:24;17.73;;;6.00;;
63943;SDS011;50121;51.218;7.664;2023-02-01T06:35:59;12.13;;;5.97;;
63943;SDS011;50121;51.218;7.664;2023-02-01T06:38:27;13.60;;;6.57;;
63943;SDS011;50121;51.218;7.664;2023-02-01T06:40:55;15.40;;;6.28;;
63943;SDS011;50121;51.218;7.664;2023-02-01T06:43:24;11.65;;;7.55;;
63943;SDS011;50121;51.218;7.664;2023-02-01T06:45:52;12.52;;;6.22;;
63943;SDS011;50121;51.218;7.664;2023-02-01T06:48:19;12.43;;;6.20;;
63943;SDS011;50121;51.218;7.664;2023-02-01T06:50:47;14.77;;;6.60;;
63943;SDS011;50121;51.218;7.664;2023-02-01T06:53:14;15.07;;;5.95;;
63943;SDS011;50121;51.218;7.664;2023-02-01T06:55:50;10.07;;;5.45;;
63943;SDS011;50121;51.218;7.664;2023-02-01T06:58:18;12.68;;;5.20;;
63943;SDS011;50121;51.218;7.664;2023-02-01T07:00:46;17.30;;;6.15;;
63943;SDS011;50121;51.218;7.664;2023-02-01T07:03:13;14.77;;;6.85;;
63943;SDS011;50121;51.218;7.664;2023-02-01T07:05:41;14.75;;;6.22;;
63943;SDS011;50121;51.218;7.664;2023-02-01T07:08:09;16.38;;;6.43;;
63943;SDS011;50121;51.218;7.664;2023-02-01T07:10:37;14.18;;;6.32;;
63943;SDS011;50121;51.218;7.664;2023-02-01T07:13:04;19.60;;;7.00;;
63943;SDS011;50121;51.218;7.664;2023-02-01T07:15:32;13.68;;;6.88;;
63943;SDS011;50121;51.218;7.664;2023-02-01T07:17:59;4.90;;;4.50;;
63943;SDS011;50121;51.218;7.664;2023-02-01T07:20:27;9.90;;;6.13;;
63943;SDS011;50121;51.218;7.664;2023-02-01T07:22:55;16.42;;;6.75;;
63943;SDS011;50121;51.218;7.664;2023-02-01T07:25:23;22.77;;;6.55;;
63943;SDS011;50121;51.218;7.664;2023-02-01T07:27:51;16.13;;;7.70;;
63943;SDS011;50121;51.218;7.664;2023-02-01T07:30:19;11.15;;;5.72;;
63943;SDS011;50121;51.218;7.664;2023-02-01T07:32:47;16.58;;;7.47;;
63943;SDS011;50121;51.218;7.664;2023-02-01T07:35:14;13.57;;;6.28;;
63943;SDS011;50121;51.218;7.664;2023-02-01T07:37:42;17.33;;;6.53;;
63943;SDS011;50121;51.218;7.664;2023-02-01T07:40:10;22.73;;;7.28;;
63943;SDS011;50121;51.218;7.664;2023-02-01T07:42:37;16.52;;;6.72;;
63943;SDS011;50121;51.218;7.664;2023-02-01T07:45:05;10.55;;;6.18;;
63943;SDS011;50121;51.218;7.664;2023-02-01T07:47:46;15.38;;;6.40;;
63943;SDS011;50121;51.218;7.664;2023-02-01T07:50:13;18.10;;;6.28;;
63943;SDS011;50121;51.218;7.664;2023-02-01T07:52:41;11.02;;;6.35;;
63943;SDS011;50121;51.218;7.664;2023-02-01T07:55:09;17.48;;;7.18;;
63943;SDS011;50121;51.218;7.664;2023-02-01T07:57:37;20.85;;;6.53;;
63943;SDS011;50121;51.218;7.664;2023-02-01T08:00:04;14.98;;;6.43;;
63943;SDS011;50121;51.218;7.664;2023-02-01T08:02:51;19.10;;;6.10;;
63943;SDS011;50121;51.218;7.664;2023-02-01T08:05:19;13.80;;;6.00;;
63943;SDS011;50121;51.218;7.664;2023-02-01T08:07:50;14.88;;;5.82;;
63943;SDS011;50121;51.218;7.664;2023-02-01T08:10:19;12.60;;;5.70;;
63943;SDS011;50121;51.218;7.664;2023-02-01T08:12:47;14.10;;;6.03;;
63943;SDS011;50121;51.218;7.664;2023-02-01T08:15:15;12.52;;;7.32;;
63943;SDS011;50121;51.218;7.664;2023-02-01T08:17:46;15.25;;;7.95;;
63943;SDS011;50121;51.218;7.664;2023-02-01T08:20:14;13.43;;;6.82;;
63943;SDS011;50121;51.218;7.664;2023-02-01T08:22:42;18.50;;;7.20;;
63943;SDS011;50121;51.218;7.664;2023-02-01T08:25:10;17.45;;;6.90;;
63943;SDS011;50121;51.218;7.664;2023-02-01T08:27:38;17.17;;;7.10;;
63943;SDS011;50121;51.218;7.664;2023-02-01T08:30:06;11.95;;;6.55;;
63943;SDS011;50121;51.218;7.664;2023-02-01T08:32:34;16.50;;;6.88;;
63943;SDS011;50121;51.218;7.664;2023-02-01T08:35:02;17.83;;;7.15;;
63943;SDS011;50121;51.218;7.664;2023-02-01T08:37:30;16.45;;;7.35;;
63943;SDS011;50121;51.218;7.664;2023-02-01T08:39:58;11.98;;;6.13;;
63943;SDS011;50121;51.218;7.664;2023-02-01T08:42:25;11.48;;;6.25;;
63943;SDS011;50121;51.218;7.664;2023-02-01T08:45:11;15.95;;;6.32;;
63943;SDS011;50121;51.218;7.664;2023-02-01T08:47:40;20.25;;;7.55;;
63943;SDS011;50121;51.218;7.664;2023-02-01T08:50:07;11.00;;;6.50;;
63943;SDS011;50121;51.218;7.664;2023-02-01T08:52:35;22.42;;;7.10;;
63943;SDS011;50121;51.218;7.664;2023-02-01T08:55:04;18.48;;;6.32;;
63943;SDS011;50121;51.218;7.664;2023-02-01T08:57:32;15.15;;;6.90;;
63943;SDS011;50121;51.218;7.664;2023-02-01T09:00:00;9.15;;;7.25;;
63943;SDS011;50121;51.218;7.664;2023-02-01T09:02:28;8.40;;;5.75;;
63943;SDS011;50121;51.218;7.664;2023-02-01T09:04:55;19.98;;;7.38;;
63943;SDS011;50121;51.218;7.664;2023-02-01T09:07:25;16.98;;;6.75;;
63943;SDS011;50121;51.218;7.664;2023-02-01T09:09:53;15.00;;;6.90;;
63943;SDS011;50121;51.218;7.664;2023-02-01T09:12:22;20.63;;;7.13;;
63943;SDS011;50121;51.218;7.664;2023-02-01T09:14:50;11.52;;;6.85;;
63943;SDS011;50121;51.218;7.664;2023-02-01T09:17:18;19.63;;;6.80;;
63943;SDS011;50121;51.218;7.664;2023-02-01T09:19:45;11.93;;;6.03;;
63943;SDS011;50121;51.218;7.664;2023-02-01T09:22:14;14.30;;;7.15;;
63943;SDS011;50121;51.218;7.664;2023-02-01T09:24:42;19.75;;;7.75;;
63943;SDS011;50121;51.218;7.664;2023-02-01T09:27:09;17.35;;;6.88;;
63943;SDS011;50121;51.218;7.664;2023-02-01T09:29:37;15.88;;;6.35;;
63943;SDS011;50121;51.218;7.664;2023-02-01T09:32:05;15.88;;;7.13;;
63943;SDS011;50121;51.218;7.664;2023-02-01T09:34:33;14.48;;;6.45;;
63943;SDS011;50121;51.218;7.664;2023-02-01T09:37:00;18.92;;;6.30;;
63943;SDS011;50121;51.218;7.664;2023-02-01T09:39:28;20.00;;;7.25;;
63943;SDS011;50121;51.218;7.664;2023-02-01T09:47:19;13.52;;;6.25;;
63943;SDS011;50121;51.218;7.664;2023-02-01T09:52:20;21.52;;;6.80;;
63943;SDS011;50121;51.218;7.664;2023-02-01T09:54:52;15.38;;;6.78;;
63943;SDS011;50121;51.218;7.664;2023-02-01T09:57:26;12.80;;;6.72;;
63943;SDS011;50121;51.218;7.664;2023-02-01T10:00:06;17.85;;;6.63;;
63943;SDS011;50121;51.218;7.664;2023-02-01T10:02:39;13.90;;;6.43;;
63943;SDS011;50121;51.218;7.664;2023-02-01T10:05:10;17.98;;;7.07;;
63943;SDS011;50121;51.218;7.664;2023-02-01T10:23:10;15.80;;;6.50;;
63943;SDS011;50121;51.218;7.664;2023-02-01T10:28:38;17.48;;;7.13;;
63943;SDS011;50121;51.218;7.664;2023-02-01T10:31:06;15.65;;;7.13;;
63943;SDS011;50121;51.218;7.664;2023-02-01T10:33:39;14.10;;;6.70;;
63943;SDS011;50121;51.218;7.664;2023-02-01T10:38:35;18.17;;;7.20;;
63943;SDS011;50121;51.218;7.664;2023-02-01T10:41:13;13.60;;;6.25;;
63943;SDS011;50121;51.218;7.664;2023-02-01T10:43:42;15.27;;;6.90;;
63943;SDS011;50121;51.218;7.664;2023-02-01T10:46:10;15.57;;;6.88;;
63943;SDS011;50121;51.218;7.664;2023-02-01T10:48:38;15.05;;;7.18;;
63943;SDS011;50121;51.218;7.664;2023-02-01T10:53:52;18.13;;;7.10;;
63943;SDS011;50121;51.218;7.664;2023-02-01T10:56:24;16.42;;;6.40;;
63943;SDS011;50121;51.218;7.664;2023-02-01T10:58:59;15.00;;;7.30;;
63943;SDS011;50121;51.218;7.664;2023-02-01T11:01:48;18.17;;;6.47;;
63943;SDS011;50121;51.218;7.664;2023-02-01T11:04:15;14.70;;;7.18;;
63943;SDS011;50121;51.218;7.664;2023-02-01T11:06:43;10.60;;;5.35;;
63943;SDS011;50121;51.218;7.664;2023-02-01T11:14:14;16.63;;;5.55;;
63943;SDS011;50121;51.218;7.664;2023-02-01T11:16:43;19.70;;;9.27;;
63943;SDS011;50121;51.218;7.664;2023-02-01T11:19:14;27.30;;;13.50;;
63943;SDS011;50121;51.218;7.664;2023-02-01T11:21:42;13.98;;;6.93;;
63943;SDS011;50121;51.218;7.664;2023-02-01T11:24:16;22.65;;;11.73;;
63943;SDS011;50121;51.218;7.664;2023-02-01T11:26:48;18.58;;;8.50;;
63943;SDS011;50121;51.218;7.664;2023-02-01T11:29:17;16.13;;;6.93;;
63943;SDS011;50121;51.218;7.664;2023-02-01T11:31:48;18.38;;;7.32;;
63943;SDS011;50121;51.218;7.664;2023-02-01T11:34:18;13.25;;;7.13;;
63943;SDS011;50121;51.218;7.664;2023-02-01T11:36:48;30.15;;;19.30;;
63943;SDS011;50121;51.218;7.664;2023-02-01T11:39:27;17.67;;;6.90;;
63943;SDS011;50121;51.218;7.664;2023-02-01T11:42:15;17.77;;;7.53;;
63943;SDS011;50121;51.218;7.664;2023-02-01T11:44:44;12.27;;;6.07;;
63943;SDS011;50121;51.218;7.664;2023-02-01T11:49:56;13.52;;;6.82;;
63943;SDS011;50121;51.218;7.664;2023-02-01T11:52:38;19.48;;;7.15;;
63943;SDS011;50121;51.218;7.664;2023-02-01T12:39:43;15.13;;;6.35;;
63943;SDS011;50121;51.218;7.664;2023-02-01T12:42:20;14.35;;;5.40;;
63943;SDS011;50121;51.218;7.664;2023-02-01T12:44:55;9.43;;;5.45;;
63943;SDS011;50121;51.218;7.664;2023-02-01T12:52:30;11.55;;;5.28;;
63943;SDS011;50121;51.218;7.664;2023-02-01T12:55:05;15.52;;;5.65;;
63943;SDS011;50121;51.218;7.664;2023-02-01T12:57:34;14.27;;;4.90;;
63943;SDS011;50121;51.218;7.664;2023-02-01T13:05:18;17.27;;;6.28;;
63943;SDS011;50121;51.218;7.664;2023-02-01T13:08:03;15.13;;;6.50;;
63943;SDS011;50121;51.218;7.664;2023-02-01T13:10:45;8.68;;;5.05;;
63943;SDS011;50121;51.218;7.664;2023-02-01T13:18:22;12.32;;;6.05;;
63943;SDS011;50121;51.218;7.664;2023-02-01T13:20:58;11.68;;;5.05;;
63943;SDS011;50121;51.218;7.664;2023-02-01T13:23:39;12.88;;;6.00;;
63943;SDS011;50121;51.218;7.664;2023-02-01T13:26:08;12.18;;;5.45;;
63943;SDS011;50121;51.218;7.664;2023-02-01T13:28:47;12.90;;;5.63;;
63943;SDS011;50121;51.218;7.664;2023-02-01T13:41:51;15.25;;;5.93;;
63943;SDS011;50121;51.218;7.664;2023-02-01T13:44:24;15.27;;;5.97;;
63943;SDS011;50121;51.218;7.664;2023-02-01T13:46:54;14.40;;;5.70;;
63943;SDS011;50121;51.218;7.664;2023-02-01T13:49:27;10.63;;;4.60;;
63943;SDS011;50121;51.218;7.664;2023-02-01T13:51:56;17.58;;;5.18;;
63943;SDS011;50121;51.218;7.664;2023-02-01T13:56:52;15.00;;;5.45;;
63943;SDS011;50121;51.218;7.664;2023-02-01T13:59:54;13.25;;;4.88;;
63943;SDS011;50121;51.218;7.664;2023-02-01T14:05:01;16.92;;;5.20;;
63943;SDS011;50121;51.218;7.664;2023-02-01T14:07:30;15.73;;;4.90;;
63943;SDS011;50121;51.218;7.664;2023-02-01T14:10:45;12.90;;;4.63;;
63943;SDS011;50121;51.218;7.664;2023-02-01T14:12:48;12.77;;;5.60;;
63943;SDS011;50121;51.218;7.664;2023-02-01T14:15:21;8.13;;;4.93;;
63943;SDS011;50121;51.218;7.664;2023-02-01T14:17:50;12.88;;;4.13;;
63943;SDS011;50121;51.218;7.664;2023-02-01T14:23:09;10.50;;;4.57;;
63943;SDS011;50121;51.218;7.664;2023-02-01T14:25:38;12.20;;;5.20;;
63943;SDS011;50121;51.218;7.664;2023-02-01T14:28:11;8.40;;;4.47;;
63943;SDS011;50121;51.218;7.664;2023-02-01T14:30:42;11.68;;;4.45;;
63943;SDS011;50121;51.218;7.664;2023-02-01T14:33:11;11.27;;;4.38;;
63943;SDS011;50121;51.218;7.664;2023-02-01T14:35:41;8.05;;;4.38;;
63943;SDS011;50121;51.218;7.664;2023-02-01T14:38:09;9.27;;;4.03;;
63943;SDS011;50121;51.218;7.664;2023-02-01T14:40:38;11.70;;;6.07;;
63943;SDS011;50121;51.218;7.664;2023-02-01T14:43:06;11.80;;;5.38;;
63943;SDS011;50121;51.218;7.664;2023-02-01T14:50:35;12.77;;;7.72;;
63943;SDS011;50121;51.218;7.664;2023-02-01T14:53:13;10.70;;;5.10;;
63943;SDS011;50121;51.218;7.664;2023-02-01T15:01:00;11.38;;;4.45;;
63943;SDS011;50121;51.218;7.664;2023-02-01T15:08:49;13.25;;;5.13;;
63943;SDS011;50121;51.218;7.664;2023-02-01T15:11:19;10.10;;;4.10;;
63943;SDS011;50121;51.218;7.664;2023-02-01T15:13:48;9.38;;;3.92;;
63943;SDS011;50121;51.218;7.664;2023-02-01T15:16:19;11.80;;;4.43;;
63943;SDS011;50121;51.218;7.664;2023-02-01T15:18:48;9.98;;;3.63;;
63943;SDS011;50121;51.218;7.664;2023-02-01T15:21:20;12.63;;;4.07;;
63943;SDS011;50121;51.218;7.664;2023-02-01T15:23:48;10.82;;;3.95;;
63943;SDS011;50121;51.218;7.664;2023-02-01T15:26:24;10.38;;;4.20;;
63943;SDS011;50121;51.218;7.664;2023-02-01T15:28:52;13.57;;;4.85;;
63943;SDS011;50121;51.218;7.664;2023-02-01T15:31:33;12.07;;;4.05;;
63943;SDS011;50121;51.218;7.664;2023-02-01T15:34:01;14.32;;;5.07;;
63943;SDS011;50121;51.218;7.664;2023-02-01T15:36:28;6.13;;;3.58;;
63943;SDS011;50121;51.218;7.664;2023-02-01T15:39:20;9.55;;;4.30;;
63943;SDS011;50121;51.218;7.664;2023-02-01T15:42:01;12.75;;;4.18;;
63943;SDS011;50121;51.218;7.664;2023-02-01T15:44:43;12.40;;;4.32;;
63943;SDS011;50121;51.218;7.664;2023-02-01T15:47:14;12.52;;;4.03;;
63943;SDS011;50121;51.218;7.664;2023-02-01T15:49:44;13.73;;;4.40;;
63943;SDS011;50121;51.218;7.664;2023-02-01T15:52:23;9.65;;;4.05;;
63943;SDS011;50121;51.218;7.664;2023-02-01T15:54:52;6.45;;;3.63;;
63943;SDS011;50121;51.218;7.664;2023-02-01T15:57:23;14.95;;;4.82;;
63943;SDS011;50121;51.218;7.664;2023-02-01T15:59:57;10.48;;;4.53;;
63943;SDS011;50121;51.218;7.664;2023-02-01T16:03:20;10.85;;;4.60;;
63943;SDS011;50121;51.218;7.664;2023-02-01T16:08:01;13.88;;;4.55;;
63943;SDS011;50121;51.218;7.664;2023-02-01T16:10:31;12.13;;;4.82;;
63943;SDS011;50121;51.218;7.664;2023-02-01T16:12:58;10.32;;;3.83;;
63943;SDS011;50121;51.218;7.664;2023-02-01T16:15:27;7.93;;;4.00;;
63943;SDS011;50121;51.218;7.664;2023-02-01T16:17:56;9.55;;;3.92;;
63943;SDS011;50121;51.218;7.664;2023-02-01T16:20:24;13.88;;;4.57;;
63943;SDS011;50121;51.218;7.664;2023-02-01T16:22:51;15.93;;;4.43;;
63943;SDS011;50121;51.218;7.664;2023-02-01T16:25:19;10.20;;;3.63;;
63943;SDS011;50121;51.218;7.664;2023-02-01T16:27:47;13.05;;;4.53;;
63943;SDS011;50121;51.218;7.664;2023-02-01T16:30:15;11.35;;;4.43;;
63943;SDS011;50121;51.218;7.664;2023-02-01T16:35:27;12.23;;;4.40;;
63943;SDS011;50121;51.218;7.664;2023-02-01T16:37:54;13.43;;;4.60;;
63943;SDS011;50121;51.218;7.664;2023-02-01T16:40:22;9.45;;;3.88;;
63943;SDS011;50121;51.218;7.664;2023-02-01T16:42:51;15.63;;;4.10;;
63943;SDS011;50121;51.218;7.664;2023-02-01T16:45:21;19.05;;;5.43;;
63943;SDS011;50121;51.218;7.664;2023-02-01T16:47:50;14.13;;;4.47;;
63943;SDS011;50121;51.218;7.664;2023-02-01T16:50:20;13.38;;;4.20;;
63943;SDS011;50121;51.218;7.664;2023-02-01T16:52:50;10.75;;;4.00;;
63943;SDS011;50121;51.218;7.664;2023-02-01T16:55:19;12.48;;;4.45;;
63943;SDS011;50121;51.218;7.664;2023-02-01T16:57:48;14.48;;;4.63;;
63943;SDS011;50121;51.218;7.664;2023-02-01T17:00:16;19.95;;;4.85;;
63943;SDS011;50121;51.218;7.664;2023-02-01T17:02:50;14.55;;;5.32;;
63943;SDS011;50121;51.218;7.664;2023-02-01T17:05:18;14.05;;;4.07;;
63943;SDS011;50121;51.218;7.664;2023-02-01T17:07:45;9.00;;;3.35;;
63943;SDS011;50121;51.218;7.664;2023-02-01T17:10:18;11.48;;;3.45;;
63943;SDS011;50121;51.218;7.664;2023-02-01T17:12:58;12.40;;;3.83;;
63943;SDS011;50121;51.218;7.664;2023-02-01T17:15:27;12.35;;;3.75;;
63943;SDS011;50121;51.218;7.664;2023-02-01T17:17:56;12.18;;;3.60;;
63943;SDS011;50121;51.218;7.664;2023-02-01T17:20:26;9.88;;;3.30;;
63943;SDS011;50121;51.218;7.664;2023-02-01T17:22:56;12.85;;;3.58;;
63943;SDS011;50121;51.218;7.664;2023-02-01T17:25:24;13.27;;;3.78;;
63943;SDS011;50121;51.218;7.664;2023-02-01T17:27:52;9.85;;;4.03;;
63943;SDS011;50121;51.218;7.664;2023-02-01T17:30:20;15.55;;;4.57;;
63943;SDS011;50121;51.218;7.664;2023-02-01T17:32:48;8.45;;;4.20;;
63943;SDS011;50121;51.218;7.664;2023-02-01T17:35:20;12.85;;;4.18;;
63943;SDS011;50121;51.218;7.664;2023-02-01T17:37:49;18.13;;;4.77;;
63943;SDS011;50121;51.218;7.664;2023-02-01T17:40:16;25.75;;;4.85;;
63943;SDS011;50121;51.218;7.664;2023-02-01T17:42:47;10.52;;;4.13;;
63943;SDS011;50121;51.218;7.664;2023-02-01T17:47:52;8.43;;;3.58;;
63943;SDS011;50121;51.218;7.664;2023-02-01T17:50:20;9.88;;;4.95;;